createdAt,value
2019-04-16T00:02:59.956Z,11.52
2019-04-16T00:08:19.469Z,11.12
2019-04-16T00:13:19.879Z,10.90
2019-04-16T00:18:26.057Z,10.79
2019-04-16T00:23:41.347Z,11.58
2019-04-16T00:28:47.114Z,11.35
2019-04-16T00:33:51.754Z,11.58
2019-04-16T00:38:56.361Z,11.17
2019-04-16T00:44:01.035Z,11.04
2019-04-16T00:49:05.782Z,11.64
2019-04-16T00:54:11.331Z,11.49
2019-04-16T00:59:16.291Z,11.15
2019-04-16T01:04:21.037Z,11.39
2019-04-16T01:09:25.672Z,11.54
2019-04-16T01:14:30.414Z,11.59
2019-04-16T01:19:35.164Z,11.66
2019-04-16T01:24:39.802Z,11.69
2019-04-16T01:29:44.544Z,11.53
2019-04-16T01:35:07.403Z,11.57
2019-04-16T01:40:22.900Z,11.45
2019-04-16T01:45:29.756Z,11.62
2019-04-16T01:50:33.927Z,11.50
2019-04-16T01:55:38.672Z,11.31
2019-04-16T02:00:45.256Z,11.03
2019-04-16T02:05:54.591Z,11.29
2019-04-16T02:10:56.170Z,11.59
2019-04-16T02:16:00.817Z,11.64
2019-04-16T02:21:09.515Z,11.60
2019-04-16T02:26:12.018Z,11.29
2019-04-16T02:31:16.799Z,11.40
2019-04-16T02:36:23.072Z,11.46
2019-04-16T02:41:27.811Z,11.23
2019-04-16T02:46:32.800Z,11.29
2019-04-16T02:51:42.103Z,11.54
2019-04-16T02:56:57.603Z,11.17
2019-04-16T03:02:07.065Z,11.25
2019-04-16T03:07:11.697Z,10.98
2019-04-16T03:12:20.032Z,11.07
2019-04-16T03:17:25.278Z,11.19
2019-04-16T03:22:30.641Z,10.89
2019-04-16T03:27:38.816Z,11.01
2019-04-16T03:32:50.812Z,11.23
2019-04-16T03:38:05.071Z,10.94
2019-04-16T03:43:10.298Z,10.94
2019-04-16T03:48:15.060Z,10.78
2019-04-16T03:53:19.847Z,10.75
2019-04-16T03:58:25.139Z,10.97
2019-04-16T04:03:31.191Z,11.39
2019-04-16T04:08:36.163Z,11.31
2019-04-16T04:13:40.914Z,11.61
2019-04-16T04:18:45.654Z,11.59
2019-04-16T04:23:50.286Z,11.79
2019-04-16T04:28:54.929Z,11.80
2019-04-16T04:33:59.674Z,11.75
2019-04-16T04:39:08.979Z,11.52
2019-04-16T04:44:12.541Z,11.27
2019-04-16T04:49:17.668Z,11.71
2019-04-16T04:54:23.452Z,11.65
2019-04-16T04:59:28.419Z,11.68
2019-04-16T05:04:37.306Z,11.63
2019-04-16T05:09:42.090Z,11.33
2019-04-16T05:14:48.471Z,11.01
2019-04-16T05:19:53.113Z,11.57
2019-04-16T05:25:01.273Z,11.60
2019-04-16T05:30:05.669Z,12.01
2019-04-16T05:35:10.861Z,12.02
2019-04-16T05:40:16.099Z,11.75
2019-04-16T05:45:20.923Z,11.84
2019-04-16T05:50:28.787Z,12.14
2019-04-16T05:55:42.413Z,12.03
2019-04-16T06:01:01.783Z,11.95
2019-04-16T06:06:06.421Z,12.12
2019-04-16T06:11:11.162Z,12.37
2019-04-16T06:16:23.927Z,12.58
2019-04-16T06:21:31.513Z,12.29
2019-04-16T06:26:54.067Z,12.43
2019-04-16T06:32:12.278Z,12.22
2019-04-16T06:37:26.455Z,12.70
2019-04-16T06:42:32.153Z,12.81
2019-04-16T06:47:42.091Z,12.72
2019-04-16T06:53:05.706Z,12.64
2019-04-16T06:58:27.294Z,12.89
2019-04-16T07:03:32.606Z,12.35
2019-04-16T07:08:50.048Z,12.48
2019-04-16T07:13:54.584Z,12.97
2019-04-16T07:18:59.424Z,12.62
2019-04-16T07:24:04.186Z,13.35
2019-04-16T07:29:10.706Z,13.21
2019-04-16T07:34:20.009Z,13.88
2019-04-16T07:39:29.811Z,14.18
2019-04-16T07:44:48.634Z,13.83
2019-04-16T07:49:59.815Z,14.23
2019-04-16T07:55:06.127Z,13.65
2019-04-16T08:00:11.260Z,14.10
2019-04-16T08:05:15.896Z,15.48
2019-04-16T08:10:20.545Z,15.87
2019-04-16T08:15:25.187Z,16.61
2019-04-16T08:20:29.935Z,16.18
2019-04-16T08:25:34.958Z,16.25
2019-04-16T08:30:39.711Z,16.38
2019-04-16T08:35:44.463Z,16.88
2019-04-16T08:40:50.176Z,17.27
2019-04-16T08:45:54.979Z,17.01
2019-04-16T08:50:59.717Z,17.87
2019-04-16T08:56:05.376Z,16.69
2019-04-16T09:01:11.665Z,16.60
2019-04-16T09:06:16.414Z,17.98
2019-04-16T09:11:23.635Z,18.09
2019-04-16T09:16:27.738Z,18.56
2019-04-16T09:21:32.256Z,18.69
2019-04-16T09:26:40.092Z,18.58
2019-04-16T09:32:02.666Z,17.90
2019-04-16T09:37:28.519Z,17.76
2019-04-16T09:42:31.803Z,17.83
2019-04-16T09:47:36.551Z,18.95
2019-04-16T09:52:42.723Z,18.92
2019-04-16T09:57:47.375Z,18.54
2019-04-16T10:02:55.127Z,19.11
2019-04-16T10:07:59.211Z,19.13
2019-04-16T10:13:04.056Z,18.54
2019-04-16T10:18:08.932Z,18.94
2019-04-16T10:23:15.769Z,19.75
2019-04-16T10:28:22.299Z,19.21
2019-04-16T10:33:27.496Z,19.63
2019-04-16T10:38:43.053Z,18.84
2019-04-16T10:43:55.197Z,18.69
2019-04-16T10:49:07.495Z,18.88
2019-04-16T10:54:16.949Z,18.87
2019-04-16T10:59:39.801Z,18.70
2019-04-16T11:04:55.396Z,19.39
2019-04-16T11:10:00.136Z,19.82
2019-04-16T11:15:05.433Z,19.14
2019-04-16T11:20:10.356Z,18.79
2019-04-16T11:25:15.207Z,19.86
2019-04-16T11:30:30.993Z,19.55
2019-04-16T11:35:37.411Z,18.75
2019-04-16T11:40:42.118Z,18.78
2019-04-16T11:45:46.887Z,19.03
2019-04-16T11:50:51.495Z,18.71
2019-04-16T12:56:42.924Z,18.73
2019-04-16T13:08:11.565Z,18.56
2019-04-16T13:13:23.678Z,18.92
2019-04-16T13:18:30.066Z,18.71
2019-04-16T13:23:45.773Z,19.02
2019-04-16T13:28:55.167Z,18.42
2019-04-16T13:33:58.525Z,19.02
2019-04-16T13:39:10.646Z,18.42
2019-04-16T13:44:17.376Z,17.65
2019-04-16T13:49:33.657Z,19.40
2019-04-16T13:54:40.029Z,20.12
2019-04-16T14:00:03.170Z,18.65
2019-04-16T14:05:05.793Z,19.56
2019-04-16T14:10:10.545Z,19.79
2019-04-16T14:15:30.845Z,19.90
2019-04-16T14:20:22.080Z,20.40
2019-04-16T14:25:26.819Z,20.10
2019-04-16T14:30:33.206Z,19.87
2019-04-16T14:35:40.222Z,19.68
2019-04-16T14:40:44.332Z,19.95
2019-04-16T14:45:57.998Z,19.52
2019-04-16T14:50:56.684Z,19.79
2019-04-16T14:56:05.956Z,19.51
2019-04-16T15:01:18.469Z,19.93
2019-04-16T15:06:37.092Z,20.04
2019-04-16T15:11:49.447Z,20.44
2019-04-16T15:16:59.030Z,20.31
2019-04-16T15:22:21.674Z,19.73
2019-04-16T15:27:44.663Z,19.26
2019-04-16T15:33:07.305Z,19.39
2019-04-16T15:38:13.903Z,19.32
2019-04-16T15:43:29.289Z,19.11
2019-04-16T15:48:38.846Z,19.06
2019-04-16T15:53:47.796Z,19.27
2019-04-16T15:58:53.043Z,19.36
2019-04-16T16:04:08.453Z,18.82
2019-04-16T16:09:24.150Z,17.70
2019-04-16T16:14:33.241Z,17.38
2019-04-16T16:19:35.887Z,16.40
2019-04-16T16:24:42.306Z,15.64
2019-04-16T16:29:47.822Z,16.45
2019-04-16T16:34:52.566Z,16.98
2019-04-16T16:39:57.412Z,17.16
2019-04-16T16:45:02.975Z,17.16
2019-04-16T16:50:11.543Z,17.18
2019-04-16T16:55:18.096Z,17.48
2019-04-16T17:00:25.032Z,17.04
2019-04-16T17:05:35.087Z,16.41
2019-04-16T17:10:42.472Z,16.63
2019-04-16T17:15:47.403Z,16.48
2019-04-16T17:20:52.560Z,16.05
2019-04-16T17:25:58.625Z,16.12
2019-04-16T17:31:03.819Z,15.48
2019-04-16T17:36:09.575Z,15.05
2019-04-16T17:41:24.596Z,15.13
2019-04-16T17:46:47.065Z,14.84
2019-04-16T17:52:00.086Z,14.39
2019-04-16T17:57:22.917Z,14.65
2019-04-16T18:02:44.132Z,13.89
2019-04-16T18:07:56.560Z,13.21
2019-04-16T18:13:15.237Z,12.51
2019-04-16T18:18:24.198Z,13.25
2019-04-16T18:23:30.646Z,13.59
2019-04-16T18:28:53.860Z,12.95
2019-04-16T18:34:16.661Z,13.00
2019-04-16T18:39:38.388Z,12.94
2019-04-16T18:44:44.833Z,12.53
2019-04-16T18:49:51.236Z,12.86
2019-04-16T18:54:56.347Z,12.72
2019-04-16T19:00:01.208Z,12.87
2019-04-16T19:05:07.484Z,12.22
2019-04-16T19:10:12.497Z,12.26
2019-04-16T19:15:17.304Z,12.25
2019-04-16T19:20:22.114Z,12.21
2019-04-16T19:25:26.757Z,12.28
2019-04-16T19:30:31.502Z,12.16
2019-04-16T19:35:36.239Z,12.00
2019-04-16T19:40:40.984Z,11.70
2019-04-16T19:45:47.673Z,11.78
2019-04-16T19:50:53.544Z,11.23
2019-04-16T19:55:58.290Z,12.22
2019-04-16T20:01:03.334Z,11.32
2019-04-16T20:06:07.974Z,11.94
2019-04-16T20:11:12.823Z,11.64
2019-04-16T20:16:17.775Z,11.55
2019-04-16T20:21:22.614Z,11.51
2019-04-16T20:26:29.411Z,11.24
2019-04-16T20:31:35.172Z,10.88
2019-04-16T20:36:39.919Z,10.40
2019-04-16T20:41:45.967Z,10.65
2019-04-16T20:46:50.731Z,11.02
2019-04-16T20:51:56.539Z,10.84
2019-04-16T20:57:01.776Z,10.26
2019-04-16T21:02:06.502Z,10.36
2019-04-16T21:07:14.164Z,9.78
2019-04-16T21:12:17.519Z,9.92
2019-04-16T21:17:22.263Z,9.47
2019-04-16T21:22:28.100Z,9.86
2019-04-16T21:27:34.820Z,10.19
2019-04-16T21:32:41.102Z,8.99
2019-04-16T21:37:59.770Z,9.16
2019-04-16T21:43:07.738Z,8.54
2019-04-16T21:48:12.598Z,9.07
2019-04-16T21:53:17.170Z,9.23
2019-04-16T21:58:21.921Z,8.78
2019-04-16T22:03:28.588Z,8.99
2019-04-16T22:08:33.243Z,9.33
2019-04-16T22:13:37.985Z,9.14
2019-04-16T22:18:42.639Z,8.68
2019-04-16T22:23:50.415Z,9.03
2019-04-16T22:28:54.156Z,9.29
2019-04-16T22:33:58.907Z,8.71
2019-04-16T22:39:08.160Z,8.91
2019-04-16T22:44:28.050Z,8.65
2019-04-16T22:49:32.795Z,8.18
2019-04-16T22:54:38.818Z,8.64
2019-04-16T22:59:43.406Z,7.20
2019-04-16T23:04:48.150Z,8.03
2019-04-16T23:09:52.903Z,8.05
2019-04-16T23:14:57.633Z,8.39
2019-04-16T23:20:02.273Z,8.16
2019-04-16T23:25:06.906Z,7.61
2019-04-16T23:30:11.546Z,8.09
2019-04-16T23:35:16.088Z,8.31
2019-04-16T23:40:20.731Z,8.01
2019-04-16T23:45:43.600Z,8.03
2019-04-16T23:50:49.772Z,7.33
2019-04-16T23:56:00.146Z,7.69
